LESA/SLM METAR and TAF weather

Enter ICAO airport designator
Station Type Date Time Source
LESA METAR 2020/07/15 05:00 UTC NOAA

LESA 150500Z 07003KT 030V110 CAVOK 12/04 Q1020


Station Type Date Time Source
LESA Decoded METAR 2020/07/15 05:00 UTC NOAA

Salamanca / Matacan, Spain (LESA) 40-57N 005-30W 795M
Jul 15, 2020 - 01:00 AM EDT / 2020.07.15 0500 UTC
Wind: from the ENE (070 degrees) at 3 MPH (3 KT) (direction variable):0
Visibility: greater than 7 mile(s):0
Temperature: 53 F (12 C)
Dew Point: 39 F (4 C)
Relative Humidity: 57%
Pressure (altimeter): 30.12 in. Hg (1020 hPa)
ob: LESA 150500Z 07003KT 030V110 CAVOK 12/04 Q1020
cycle: 5

Station Type Date Time Source
LESA TAF 2020/07/14 18:27 UTC NOAA

TAF LESA 141700Z 1418/1518 05010KT CAVOK TX30/1515Z TN10/1506Z PROB30
TEMPO 1421/1424 05015G25KT

Example: see airport list